createdAt,value
2023-05-24T00:00:22.432Z,16.14
2023-05-24T00:01:27.142Z,16.14
2023-05-24T00:02:29.144Z,16.14
2023-05-24T00:03:35.063Z,16.14
2023-05-24T00:04:37.303Z,16.13
2023-05-24T00:05:41.434Z,16.06
2023-05-24T00:06:44.975Z,16.02
2023-05-24T00:07:46.721Z,15.99
2023-05-24T00:08:48.668Z,16.00
2023-05-24T00:09:50.517Z,16.04
2023-05-24T00:10:52.352Z,16.08
2023-05-24T00:11:54.169Z,16.09
2023-05-24T00:12:55.932Z,16.11
2023-05-24T00:13:58.017Z,16.14
2023-05-24T00:14:59.802Z,16.15
2023-05-24T00:16:01.529Z,16.16
2023-05-24T00:17:03.430Z,16.15
2023-05-24T00:18:05.328Z,16.14
2023-05-24T00:19:07.051Z,16.08
2023-05-24T00:20:12.565Z,16.06
2023-05-24T00:21:14.821Z,16.06
2023-05-24T00:22:16.526Z,16.05
2023-05-24T00:23:18.240Z,16.06
2023-05-24T00:24:20.009Z,16.06
2023-05-24T00:25:21.766Z,16.05
2023-05-24T00:26:23.574Z,16.07
2023-05-24T00:27:25.299Z,16.07
2023-05-24T00:28:27.260Z,16.07
2023-05-24T00:29:30.844Z,16.09
2023-05-24T00:30:34.088Z,16.10
2023-05-24T00:31:35.892Z,16.11
2023-05-24T00:32:37.695Z,16.12
2023-05-24T00:33:39.467Z,16.13
2023-05-24T00:34:41.450Z,16.13
2023-05-24T00:35:43.235Z,16.12
2023-05-24T00:36:45.020Z,16.13
2023-05-24T00:37:46.882Z,16.15
2023-05-24T00:38:48.671Z,16.14
2023-05-24T00:39:50.581Z,16.10
2023-05-24T00:40:52.506Z,16.08
2023-05-24T00:41:54.245Z,16.04
2023-05-24T00:42:56.049Z,16.02
2023-05-24T00:43:57.785Z,16.02
2023-05-24T00:44:59.493Z,16.00
2023-05-24T00:46:18.540Z,16.03
2023-05-24T00:47:20.794Z,16.02
2023-05-24T00:48:23.949Z,15.99
2023-05-24T00:49:26.743Z,16.01
2023-05-24T00:50:28.658Z,16.02
2023-05-24T00:51:32.805Z,15.97
2023-05-24T00:52:34.605Z,15.96
2023-05-24T00:53:37.107Z,15.93
2023-05-24T00:54:41.007Z,15.92
2023-05-24T00:55:42.768Z,15.94
2023-05-24T00:56:44.783Z,15.96
2023-05-24T00:57:46.580Z,15.98
2023-05-24T00:58:50.525Z,16.00
2023-05-24T00:59:52.732Z,15.99
2023-05-24T01:00:58.055Z,15.99
2023-05-24T01:02:00.026Z,15.97
2023-05-24T01:03:02.811Z,15.98
2023-05-24T01:04:06.049Z,15.98
2023-05-24T01:05:08.063Z,15.98
2023-05-24T01:06:09.872Z,15.98
2023-05-24T01:07:31.866Z,15.97
2023-05-24T01:08:46.456Z,15.97
2023-05-24T01:09:56.853Z,15.99
2023-05-24T01:11:02.184Z,16.00
2023-05-24T01:12:15.681Z,15.99
2023-05-24T01:13:26.383Z,15.99
2023-05-24T01:14:34.233Z,15.98
2023-05-24T01:15:36.062Z,15.96
2023-05-24T01:16:47.048Z,15.97
2023-05-24T01:18:01.937Z,15.94
2023-05-24T01:19:13.215Z,15.94
2023-05-24T01:20:17.572Z,15.96
2023-05-24T01:21:28.430Z,15.97
2023-05-24T01:22:36.171Z,15.98
2023-05-24T01:24:13.386Z,15.97
2023-05-24T01:25:15.106Z,15.95
2023-05-24T01:26:39.306Z,15.97
2023-05-24T01:27:41.288Z,15.98
2023-05-24T01:28:44.777Z,16.00
2023-05-24T01:29:53.410Z,16.01
2023-05-24T01:30:56.209Z,16.02
2023-05-24T01:31:58.197Z,16.00
2023-05-24T01:33:00.364Z,16.00
2023-05-24T01:34:02.189Z,16.00
2023-05-24T01:35:04.064Z,16.00
2023-05-24T01:36:06.518Z,15.96
2023-05-24T01:37:08.398Z,15.96
2023-05-24T01:38:12.288Z,15.93
2023-05-24T01:39:14.218Z,15.90
2023-05-24T01:40:16.083Z,15.91
2023-05-24T01:41:20.829Z,15.91
2023-05-24T01:42:46.253Z,15.89
2023-05-24T01:44:00.645Z,15.86
2023-05-24T01:45:11.420Z,15.86
2023-05-24T01:46:31.865Z,15.87
2023-05-24T01:47:47.942Z,15.90
2023-05-24T01:49:02.769Z,15.88
2023-05-24T01:50:10.675Z,15.89
2023-05-24T01:51:16.009Z,15.91
2023-05-24T01:52:20.788Z,15.90
2023-05-24T01:53:24.322Z,15.90
2023-05-24T01:54:27.335Z,15.91
2023-05-24T01:55:31.348Z,15.92
2023-05-24T01:56:33.349Z,15.90
2023-05-24T01:57:36.367Z,15.90
2023-05-24T01:58:39.434Z,15.90
2023-05-24T01:59:43.546Z,15.90
2023-05-24T02:00:45.884Z,15.89
2023-05-24T02:01:48.222Z,15.89
2023-05-24T02:02:50.650Z,15.90
2023-05-24T02:03:52.415Z,15.90
2023-05-24T02:04:54.560Z,15.88
2023-05-24T02:05:56.383Z,15.87
2023-05-24T02:06:58.069Z,15.85
2023-05-24T02:07:59.846Z,15.82
2023-05-24T02:09:01.600Z,15.84
2023-05-24T02:10:04.094Z,15.85
2023-05-24T02:11:05.978Z,15.84
2023-05-24T02:12:08.077Z,15.82
2023-05-24T02:13:09.972Z,15.81
2023-05-24T02:14:11.807Z,15.82
2023-05-24T02:15:15.056Z,15.83
2023-05-24T02:16:18.412Z,15.83
2023-05-24T02:17:20.346Z,15.83
2023-05-24T02:18:22.854Z,15.79
2023-05-24T02:19:25.307Z,15.77
2023-05-24T02:20:29.155Z,15.77
2023-05-24T02:21:33.096Z,15.77
2023-05-24T02:22:34.833Z,15.78
2023-05-24T02:23:37.920Z,15.74
2023-05-24T02:24:40.653Z,15.72
2023-05-24T02:25:42.412Z,15.66
2023-05-24T02:26:44.530Z,15.65
2023-05-24T02:27:47.484Z,15.64
2023-05-24T02:28:49.239Z,15.64
2023-05-24T02:29:51.011Z,15.61
2023-05-24T02:30:52.856Z,15.62
2023-05-24T02:31:56.991Z,15.63
2023-05-24T02:32:58.823Z,15.64
2023-05-24T02:34:00.626Z,15.67
2023-05-24T02:35:02.412Z,15.68
2023-05-24T02:36:04.257Z,15.69
2023-05-24T02:37:06.337Z,15.70
2023-05-24T02:38:08.153Z,15.68
2023-05-24T02:39:09.955Z,15.69
2023-05-24T02:40:12.257Z,15.70
2023-05-24T02:41:18.080Z,15.73
2023-05-24T02:42:19.838Z,15.75
2023-05-24T02:43:21.696Z,15.76
2023-05-24T02:44:23.463Z,15.76
2023-05-24T02:45:25.228Z,15.77
2023-05-24T02:46:26.991Z,15.76
2023-05-24T02:47:28.744Z,15.74
2023-05-24T02:48:30.627Z,15.74
2023-05-24T02:49:32.455Z,15.74
2023-05-24T02:50:34.258Z,15.73
2023-05-24T02:51:37.230Z,15.71
2023-05-24T02:52:38.988Z,15.69
2023-05-24T02:53:43.755Z,15.66
2023-05-24T02:54:45.900Z,15.62
2023-05-24T02:55:47.626Z,15.61
2023-05-24T02:56:49.352Z,15.61
2023-05-24T02:57:51.641Z,15.62
2023-05-24T02:58:54.456Z,15.64
2023-05-24T02:59:56.266Z,15.65
2023-05-24T03:00:57.980Z,15.63
2023-05-24T03:02:00.278Z,15.61
2023-05-24T03:03:03.473Z,15.60
2023-05-24T03:04:05.763Z,15.58
2023-05-24T03:05:08.670Z,15.57
2023-05-24T03:06:10.425Z,15.59
2023-05-24T03:07:12.128Z,15.60
2023-05-24T03:08:13.859Z,15.57
2023-05-24T03:09:16.972Z,15.57
2023-05-24T03:10:18.713Z,15.58
2023-05-24T03:11:22.623Z,15.59
2023-05-24T03:12:24.629Z,15.58
2023-05-24T03:13:26.464Z,15.57
2023-05-24T03:14:28.208Z,15.56
2023-05-24T03:15:29.995Z,15.58
2023-05-24T03:16:32.256Z,15.60
2023-05-24T03:17:34.052Z,15.60
2023-05-24T03:18:36.447Z,15.61
2023-05-24T03:19:38.316Z,15.60
2023-05-24T03:20:40.180Z,15.63
2023-05-24T03:21:41.968Z,15.62
2023-05-24T03:22:44.265Z,15.59
2023-05-24T03:23:46.012Z,15.53
2023-05-24T03:24:48.958Z,15.53
2023-05-24T03:25:50.772Z,15.52
2023-05-24T03:26:52.458Z,15.53
2023-05-24T03:27:54.169Z,15.53
2023-05-24T03:28:56.738Z,15.53
2023-05-24T03:29:58.702Z,15.54
2023-05-24T03:31:00.452Z,15.55
2023-05-24T03:32:02.204Z,15.55
2023-05-24T03:33:03.976Z,15.55
2023-05-24T03:34:05.793Z,15.52
2023-05-24T03:35:08.071Z,15.50
2023-05-24T03:36:10.136Z,15.49
2023-05-24T03:37:12.472Z,15.47
2023-05-24T03:38:14.237Z,15.48
2023-05-24T03:39:16.130Z,15.45
2023-05-24T03:40:17.871Z,15.42
2023-05-24T03:41:19.572Z,15.44
2023-05-24T03:42:22.603Z,15.44
2023-05-24T03:43:24.449Z,15.44
2023-05-24T03:44:26.680Z,15.45
2023-05-24T03:45:38.415Z,15.47
2023-05-24T03:46:41.595Z,15.45
2023-05-24T03:47:43.347Z,15.46
2023-05-24T03:48:45.128Z,15.44
2023-05-24T03:49:47.165Z,15.44
2023-05-24T03:50:48.963Z,15.45
2023-05-24T03:51:50.749Z,15.47
2023-05-24T03:52:53.428Z,15.48
2023-05-24T03:53:58.445Z,15.50
2023-05-24T03:55:00.213Z,15.50
2023-05-24T03:56:02.160Z,15.49
2023-05-24T03:57:04.008Z,15.50
2023-05-24T03:58:05.829Z,15.51
2023-05-24T03:59:07.542Z,15.50
2023-05-24T04:00:10.342Z,15.50
2023-05-24T04:01:21.962Z,15.48
2023-05-24T04:02:31.388Z,15.48
2023-05-24T04:03:34.516Z,15.45
2023-05-24T04:04:37.507Z,15.43
2023-05-24T04:05:39.254Z,15.43
2023-05-24T04:06:42.284Z,15.40
2023-05-24T04:07:46.599Z,15.40
2023-05-24T04:08:48.334Z,15.39
2023-05-24T04:09:50.254Z,15.39
2023-05-24T04:10:52.069Z,15.37
2023-05-24T04:11:53.820Z,15.38
2023-05-24T04:12:57.277Z,15.40
2023-05-24T04:14:00.941Z,15.42
2023-05-24T04:15:03.187Z,15.43
2023-05-24T04:16:04.946Z,15.44
2023-05-24T04:17:08.258Z,15.44
2023-05-24T04:18:10.320Z,15.43
2023-05-24T04:19:12.274Z,15.38
2023-05-24T04:20:14.388Z,15.35
2023-05-24T04:21:16.235Z,15.35
2023-05-24T04:22:18.862Z,15.36
2023-05-24T04:23:20.687Z,15.35
2023-05-24T04:24:22.433Z,15.37
2023-05-24T04:25:24.234Z,15.38
2023-05-24T04:26:25.960Z,15.39
2023-05-24T04:27:27.729Z,15.40
2023-05-24T04:28:29.546Z,15.39
2023-05-24T04:29:33.739Z,15.38
2023-05-24T04:30:36.909Z,15.39
2023-05-24T04:31:38.756Z,15.41
2023-05-24T04:32:40.846Z,15.39
2023-05-24T04:33:42.736Z,15.36
2023-05-24T04:34:46.363Z,15.38
2023-05-24T04:35:48.808Z,15.37
2023-05-24T04:36:52.759Z,15.37
2023-05-24T04:37:54.569Z,15.37
2023-05-24T04:38:57.709Z,15.39
2023-05-24T04:39:59.474Z,15.37
2023-05-24T04:41:01.269Z,15.40
2023-05-24T04:42:03.575Z,15.39
2023-05-24T04:43:07.574Z,15.40
2023-05-24T04:44:10.232Z,15.40
2023-05-24T04:45:12.023Z,15.40
2023-05-24T04:46:13.824Z,15.39
2023-05-24T04:47:16.592Z,15.33
2023-05-24T04:48:18.474Z,15.36
2023-05-24T04:49:20.221Z,15.36
2023-05-24T04:50:22.041Z,15.34
2023-05-24T04:51:24.426Z,15.36
2023-05-24T04:52:26.126Z,15.39
2023-05-24T04:53:27.874Z,15.38
2023-05-24T04:54:29.620Z,15.42
2023-05-24T04:55:31.369Z,15.46
2023-05-24T04:56:33.087Z,15.48
2023-05-24T04:57:34.876Z,15.49
2023-05-24T04:58:38.158Z,15.53
2023-05-24T04:59:41.214Z,15.55
2023-05-24T05:00:43.952Z,15.54
2023-05-24T05:01:46.088Z,15.51
2023-05-24T05:02:48.010Z,15.49
2023-05-24T05:03:49.806Z,15.50
2023-05-24T05:04:51.632Z,15.53
2023-05-24T05:05:53.969Z,15.55
2023-05-24T05:06:55.838Z,15.57
2023-05-24T05:07:57.801Z,15.57
2023-05-24T05:08:59.496Z,15.58
2023-05-24T05:10:01.308Z,15.56
2023-05-24T05:11:03.185Z,15.55
2023-05-24T05:12:05.047Z,15.57
2023-05-24T05:13:06.811Z,15.56
2023-05-24T05:14:11.798Z,15.59
2023-05-24T05:15:13.805Z,15.63
2023-05-24T05:16:15.574Z,15.65
2023-05-24T05:17:17.289Z,15.67
2023-05-24T05:18:19.106Z,15.70
2023-05-24T05:19:21.076Z,15.69
2023-05-24T05:20:23.033Z,15.69
2023-05-24T05:21:24.890Z,15.70
2023-05-24T05:22:26.650Z,15.72
2023-05-24T05:23:28.414Z,15.75
2023-05-24T05:24:30.231Z,15.79
2023-05-24T05:25:32.225Z,15.80
2023-05-24T05:26:34.717Z,15.83
2023-05-24T05:27:36.554Z,15.86
2023-05-24T05:28:38.336Z,15.89
2023-05-24T05:29:40.128Z,15.90
2023-05-24T05:30:42.087Z,15.89
2023-05-24T05:31:44.166Z,15.89
2023-05-24T05:32:46.091Z,15.89
2023-05-24T05:33:48.124Z,15.90
2023-05-24T05:34:50.145Z,15.89
2023-05-24T05:35:53.584Z,15.89
2023-05-24T05:36:56.615Z,15.88
2023-05-24T05:37:58.330Z,15.88
2023-05-24T05:39:00.144Z,15.88
2023-05-24T05:40:01.893Z,15.89
2023-05-24T05:41:03.734Z,15.87
2023-05-24T05:42:05.918Z,15.86
2023-05-24T05:43:08.754Z,15.87
2023-05-24T05:44:11.270Z,15.84
2023-05-24T05:45:13.014Z,15.82
2023-05-24T05:46:15.985Z,15.78
2023-05-24T05:47:17.747Z,15.75
2023-05-24T05:48:20.175Z,15.74
2023-05-24T05:49:21.924Z,15.72
2023-05-24T05:50:23.852Z,15.70
2023-05-24T05:51:25.637Z,15.69
2023-05-24T05:52:27.394Z,15.67
2023-05-24T05:53:29.102Z,15.67
2023-05-24T05:54:31.547Z,15.65
2023-05-24T05:55:33.354Z,15.65
2023-05-24T05:56:41.164Z,15.63
2023-05-24T05:57:43.355Z,15.64
2023-05-24T05:58:45.022Z,15.64
2023-05-24T05:59:46.739Z,15.65
2023-05-24T06:00:48.501Z,15.65
2023-05-24T06:01:50.278Z,15.64
2023-05-24T06:02:52.134Z,15.64
2023-05-24T06:03:54.017Z,15.63
2023-05-24T06:04:56.490Z,15.61
2023-05-24T06:05:58.259Z,15.60
2023-05-24T06:07:00.049Z,15.60
2023-05-24T06:08:01.851Z,15.60
2023-05-24T06:09:03.717Z,15.62
2023-05-24T06:10:06.436Z,15.64
2023-05-24T06:11:08.174Z,15.63
2023-05-24T06:12:09.954Z,15.64
2023-05-24T06:13:11.698Z,15.65
2023-05-24T06:14:18.570Z,15.62
2023-05-24T06:15:23.166Z,15.62
2023-05-24T06:16:25.053Z,15.63
2023-05-24T06:17:28.505Z,15.61
2023-05-24T06:18:32.268Z,15.59
2023-05-24T06:19:34.131Z,15.59
2023-05-24T06:20:37.299Z,15.58
2023-05-24T06:21:41.182Z,15.55
2023-05-24T06:22:43.018Z,15.52
2023-05-24T06:23:44.785Z,15.51
2023-05-24T06:24:46.539Z,15.49
2023-05-24T06:25:48.431Z,15.50
2023-05-24T06:26:51.005Z,15.47
2023-05-24T06:27:52.742Z,15.47
2023-05-24T06:28:54.575Z,15.47
2023-05-24T06:29:56.315Z,15.45
2023-05-24T06:30:58.224Z,15.45
2023-05-24T06:32:00.207Z,15.47
2023-05-24T06:33:02.712Z,15.48
2023-05-24T06:34:04.933Z,15.51
2023-05-24T06:35:08.119Z,15.51
2023-05-24T06:36:09.868Z,15.51
2023-05-24T06:37:15.518Z,15.50
2023-05-24T06:38:17.999Z,15.51
2023-05-24T06:39:19.761Z,15.51
2023-05-24T06:40:21.530Z,15.53
2023-05-24T06:41:23.234Z,15.53
2023-05-24T06:42:24.997Z,15.51
2023-05-24T06:43:26.706Z,15.51
2023-05-24T06:44:34.244Z,15.50
2023-05-24T06:45:36.793Z,15.49
2023-05-24T06:46:39.401Z,15.48
2023-05-24T06:47:41.577Z,15.49
2023-05-24T06:48:43.512Z,15.50
2023-05-24T06:49:45.397Z,15.49
2023-05-24T06:50:47.688Z,15.49
2023-05-24T06:51:49.771Z,15.48
2023-05-24T06:52:51.541Z,15.46
2023-05-24T06:53:53.642Z,15.45
2023-05-24T06:54:55.533Z,15.44
2023-05-24T06:55:57.686Z,15.42
2023-05-24T06:56:59.538Z,15.44
2023-05-24T06:58:01.316Z,15.46
2023-05-24T06:59:03.058Z,15.46
2023-05-24T07:00:10.053Z,15.48
2023-05-24T07:01:12.359Z,15.50
2023-05-24T07:02:14.148Z,15.51
2023-05-24T07:03:16.100Z,15.51
2023-05-24T07:04:18.073Z,15.54
2023-05-24T07:05:20.450Z,15.54
2023-05-24T07:06:22.177Z,15.54
2023-05-24T07:07:23.975Z,15.55
2023-05-24T07:08:25.951Z,15.56
2023-05-24T07:09:27.697Z,15.57
2023-05-24T07:10:29.449Z,15.57
2023-05-24T07:11:31.677Z,15.55
2023-05-24T07:12:33.437Z,15.54
2023-05-24T07:13:35.184Z,15.51
2023-05-24T07:14:36.834Z,15.52
2023-05-24T07:15:38.576Z,15.51
2023-05-24T07:16:40.357Z,15.49
2023-05-24T07:17:42.157Z,15.50
2023-05-24T07:18:43.964Z,15.49
2023-05-24T07:19:45.692Z,15.49
2023-05-24T07:20:47.784Z,15.49
2023-05-24T07:21:50.866Z,15.48
2023-05-24T07:22:53.213Z,15.48
2023-05-24T07:23:54.933Z,15.46
2023-05-24T07:24:56.916Z,15.47
2023-05-24T07:25:59.355Z,15.46
2023-05-24T07:27:01.216Z,15.47
2023-05-24T07:28:02.954Z,15.46
2023-05-24T07:29:04.780Z,15.45
2023-05-24T07:30:16.477Z,15.46
2023-05-24T07:31:27.670Z,15.45
2023-05-24T07:32:29.816Z,15.46
2023-05-24T07:33:31.726Z,15.46
2023-05-24T07:34:33.459Z,15.45
2023-05-24T07:35:35.187Z,15.46
2023-05-24T07:36:37.532Z,15.45
2023-05-24T07:37:39.864Z,15.45
2023-05-24T07:38:41.619Z,15.44
2023-05-24T07:39:43.690Z,15.46
2023-05-24T07:40:45.663Z,15.45
2023-05-24T07:41:47.644Z,15.44
2023-05-24T07:42:49.359Z,15.44
2023-05-24T07:43:51.477Z,15.46
2023-05-24T07:44:53.175Z,15.47
2023-05-24T07:45:55.049Z,15.50
2023-05-24T07:46:57.670Z,15.51
2023-05-24T07:47:59.585Z,15.54
2023-05-24T07:49:01.431Z,15.56
2023-05-24T07:50:03.907Z,15.57
2023-05-24T07:51:06.548Z,15.58
2023-05-24T07:52:08.755Z,15.62
2023-05-24T07:53:10.535Z,15.62
2023-05-24T07:54:12.333Z,15.64
2023-05-24T07:55:14.967Z,15.70
2023-05-24T07:56:16.685Z,15.71
2023-05-24T07:57:21.512Z,15.71
2023-05-24T07:58:23.244Z,15.73
2023-05-24T07:59:25.062Z,15.74
2023-05-24T08:00:27.028Z,15.76
2023-05-24T08:01:29.111Z,15.77
2023-05-24T08:02:31.590Z,15.78
2023-05-24T08:03:35.112Z,15.78
2023-05-24T08:04:36.899Z,15.82
2023-05-24T08:05:38.668Z,15.82
2023-05-24T08:06:40.509Z,15.84
2023-05-24T08:07:42.425Z,15.85
2023-05-24T08:08:44.175Z,15.86
2023-05-24T08:09:46.173Z,15.88
2023-05-24T08:10:47.972Z,15.89
2023-05-24T08:11:49.714Z,15.90
2023-05-24T08:12:55.027Z,15.90
2023-05-24T08:13:56.868Z,15.91
2023-05-24T08:14:58.612Z,15.91
2023-05-24T08:16:00.529Z,15.92
2023-05-24T08:17:02.413Z,15.93
2023-05-24T08:18:05.434Z,15.92
2023-05-24T08:19:07.338Z,15.92
2023-05-24T08:20:10.191Z,15.89
2023-05-24T08:21:12.338Z,15.91
2023-05-24T08:22:14.218Z,15.91
2023-05-24T08:23:15.966Z,15.92
2023-05-24T08:24:17.973Z,15.92
2023-05-24T08:25:20.222Z,15.94
2023-05-24T08:26:22.297Z,15.96
2023-05-24T08:27:24.136Z,15.96
2023-05-24T08:28:26.598Z,15.97
2023-05-24T08:29:28.761Z,15.98
2023-05-24T08:30:30.886Z,15.99
2023-05-24T08:31:35.373Z,16.01
2023-05-24T08:32:38.852Z,16.04
2023-05-24T08:33:41.093Z,16.06
2023-05-24T08:34:42.886Z,16.09
2023-05-24T08:35:44.861Z,16.12
2023-05-24T08:36:46.801Z,16.15
2023-05-24T08:37:49.722Z,16.20
2023-05-24T08:38:51.766Z,16.26
2023-05-24T08:39:53.557Z,16.31
2023-05-24T08:40:55.560Z,16.36
2023-05-24T08:42:08.664Z,16.41
2023-05-24T08:43:12.481Z,16.46
2023-05-24T08:44:14.810Z,16.53
2023-05-24T08:45:18.173Z,16.60
2023-05-24T08:46:20.295Z,16.66
2023-05-24T08:47:22.394Z,16.69
2023-05-24T08:48:26.022Z,16.74
2023-05-24T08:49:27.783Z,16.80
2023-05-24T08:50:30.772Z,16.87
2023-05-24T08:51:34.283Z,16.91
2023-05-24T08:52:36.618Z,16.94
2023-05-24T08:53:39.415Z,16.97
2023-05-24T08:54:41.941Z,17.02
2023-05-24T08:55:44.941Z,17.06
2023-05-24T08:56:47.450Z,17.10
2023-05-24T08:57:49.229Z,17.13
2023-05-24T08:58:51.124Z,17.15
2023-05-24T08:59:56.277Z,17.19
2023-05-24T09:00:59.052Z,17.19
2023-05-24T09:02:02.138Z,17.19
2023-05-24T09:03:05.213Z,17.20
2023-05-24T09:04:08.564Z,17.19
2023-05-24T09:05:11.334Z,17.11
2023-05-24T09:06:14.051Z,17.11
2023-05-24T09:07:17.870Z,17.11
2023-05-24T09:08:20.719Z,17.09
2023-05-24T09:09:23.114Z,17.08
2023-05-24T09:10:25.877Z,17.07
2023-05-24T09:11:27.942Z,17.06
2023-05-24T09:13:36.479Z,17.02
2023-05-24T09:14:38.362Z,17.04
2023-05-24T09:15:40.395Z,17.03
2023-05-24T09:16:43.600Z,17.03
2023-05-24T09:17:45.674Z,17.04
2023-05-24T09:18:47.585Z,17.04
2023-05-24T09:19:50.895Z,17.02
2023-05-24T09:20:52.812Z,17.01
2023-05-24T09:21:55.278Z,17.00
2023-05-24T09:22:58.157Z,17.02
2023-05-24T09:23:59.898Z,17.03
2023-05-24T09:25:02.279Z,17.03
2023-05-24T09:26:08.954Z,17.05
2023-05-24T09:27:10.795Z,17.06
2023-05-24T09:28:17.954Z,17.06
2023-05-24T09:29:23.195Z,17.07
2023-05-24T09:30:24.934Z,17.11
2023-05-24T09:31:35.996Z,17.13
2023-05-24T09:32:37.811Z,17.17
2023-05-24T09:33:40.195Z,17.21
2023-05-24T09:34:42.850Z,17.22
2023-05-24T09:35:44.615Z,17.24
2023-05-24T09:36:47.301Z,17.26
2023-05-24T09:37:49.037Z,17.28
2023-05-24T09:39:04.315Z,17.29
2023-05-24T09:40:07.393Z,17.29
2023-05-24T09:41:11.133Z,17.29
2023-05-24T09:42:17.849Z,17.28
2023-05-24T09:43:19.859Z,17.29
2023-05-24T09:44:25.119Z,17.26
2023-05-24T09:45:27.351Z,17.27
2023-05-24T09:46:30.097Z,17.28
2023-05-24T09:47:33.457Z,17.28
2023-05-24T09:48:35.354Z,17.25
2023-05-24T09:49:37.897Z,17.26
2023-05-24T09:50:39.830Z,17.27
2023-05-24T09:51:41.791Z,17.27
2023-05-24T09:52:43.788Z,17.27
2023-05-24T09:53:47.268Z,17.25
2023-05-24T09:54:49.029Z,17.25
2023-05-24T09:55:50.955Z,17.24
2023-05-24T09:56:52.760Z,17.23
2023-05-24T09:58:04.505Z,17.25
2023-05-24T09:59:10.140Z,17.26
2023-05-24T10:00:17.839Z,17.26
2023-05-24T10:01:22.870Z,17.23
2023-05-24T10:02:26.077Z,17.21
2023-05-24T10:03:27.886Z,17.23
2023-05-24T10:04:33.054Z,17.20
2023-05-24T10:05:38.358Z,17.19
2023-05-24T10:06:43.205Z,17.18
2023-05-24T10:07:45.640Z,17.19
2023-05-24T10:08:48.494Z,17.18
2023-05-24T10:09:50.325Z,17.16
2023-05-24T10:10:52.402Z,17.14
2023-05-24T10:11:54.223Z,17.12
2023-05-24T10:12:56.531Z,17.12
2023-05-24T10:13:59.164Z,17.11
2023-05-24T10:15:01.014Z,17.11
2023-05-24T10:16:03.330Z,17.13
2023-05-24T10:17:08.400Z,17.09
2023-05-24T10:18:13.675Z,17.07
2023-05-24T10:19:17.179Z,17.08
2023-05-24T10:20:19.063Z,17.02
2023-05-24T10:21:22.271Z,17.02
2023-05-24T10:22:25.337Z,17.00
2023-05-24T10:23:29.711Z,16.97
2023-05-24T10:24:33.841Z,16.91
2023-05-24T10:25:35.799Z,16.87
2023-05-24T10:26:39.730Z,16.88
2023-05-24T10:27:41.754Z,16.93
2023-05-24T10:28:45.619Z,16.96
2023-05-24T10:29:47.285Z,17.00
2023-05-24T10:30:55.994Z,17.03
2023-05-24T10:31:58.775Z,16.99
2023-05-24T10:33:01.777Z,17.05
2023-05-24T10:34:08.337Z,17.08
2023-05-24T10:35:12.725Z,17.03
2023-05-24T10:36:16.286Z,17.04
2023-05-24T10:37:18.571Z,17.08
2023-05-24T10:38:22.335Z,17.09
2023-05-24T10:39:25.840Z,17.11
2023-05-24T10:40:27.648Z,17.15
2023-05-24T10:41:29.489Z,17.15
2023-05-24T10:42:32.664Z,17.15
2023-05-24T10:43:38.085Z,17.07
2023-05-24T10:44:39.948Z,17.02
2023-05-24T10:45:42.233Z,17.04
2023-05-24T10:47:04.416Z,17.09
2023-05-24T10:48:10.659Z,17.06
2023-05-24T10:49:14.080Z,17.10
2023-05-24T10:50:19.325Z,17.16
2023-05-24T10:51:35.040Z,17.13
2023-05-24T10:52:37.309Z,17.11
2023-05-24T10:53:40.571Z,17.10
2023-05-24T10:55:03.927Z,17.12
2023-05-24T10:56:09.962Z,17.17
2023-05-24T10:57:12.187Z,17.16
2023-05-24T10:58:14.281Z,17.17
2023-05-24T10:59:29.165Z,17.17
2023-05-24T11:00:35.736Z,17.15
2023-05-24T11:01:38.203Z,17.13
2023-05-24T11:02:40.699Z,17.15
2023-05-24T11:03:43.559Z,17.10
2023-05-24T11:04:49.602Z,17.08
2023-05-24T11:05:53.299Z,17.06
2023-05-24T11:06:56.498Z,17.08
2023-05-24T11:08:01.510Z,17.13
2023-05-24T11:09:03.459Z,17.18
2023-05-24T11:10:09.734Z,17.19
2023-05-24T11:11:24.700Z,17.22
2023-05-24T11:12:34.924Z,17.19
2023-05-24T11:13:37.095Z,17.18
2023-05-24T11:14:40.086Z,17.20
2023-05-24T11:15:50.023Z,17.21
2023-05-24T11:16:52.113Z,17.23
2023-05-24T11:18:14.283Z,17.27
2023-05-24T11:19:20.786Z,17.24
2023-05-24T11:20:22.897Z,17.22
2023-05-24T11:21:24.916Z,17.26
2023-05-24T11:22:27.221Z,17.30
2023-05-24T11:23:29.185Z,17.31
2023-05-24T11:24:31.102Z,17.31
2023-05-24T11:25:37.697Z,17.31
2023-05-24T11:26:40.290Z,17.35
2023-05-24T11:27:44.395Z,17.37
2023-05-24T11:28:46.980Z,17.40
2023-05-24T11:29:49.021Z,17.38
2023-05-24T11:30:51.084Z,17.36
2023-05-24T11:32:05.803Z,17.37
2023-05-24T11:33:23.679Z,17.37
2023-05-24T11:34:27.546Z,17.39
2023-05-24T11:35:30.119Z,17.43
2023-05-24T11:36:33.450Z,17.45
2023-05-24T11:37:45.673Z,17.46
2023-05-24T11:38:49.156Z,17.48
2023-05-24T11:39:54.642Z,17.47
2023-05-24T11:40:58.781Z,17.44
2023-05-24T11:42:01.600Z,17.43
2023-05-24T11:43:05.977Z,17.41
2023-05-24T11:44:08.596Z,17.38
2023-05-24T11:45:11.186Z,17.38
2023-05-24T11:46:12.920Z,17.37
2023-05-24T11:47:14.611Z,17.34
2023-05-24T11:48:17.180Z,17.32
2023-05-24T11:49:18.925Z,17.27
2023-05-24T11:50:25.326Z,17.27
2023-05-24T11:51:29.750Z,17.26
2023-05-24T11:52:31.729Z,17.27
2023-05-24T11:53:33.525Z,17.30
2023-05-24T11:54:37.659Z,17.30
2023-05-24T11:55:41.597Z,17.31
2023-05-24T11:56:43.510Z,17.29
2023-05-24T11:57:50.223Z,17.25
2023-05-24T11:58:56.425Z,17.27
2023-05-24T11:59:58.994Z,17.24
2023-05-24T12:01:01.078Z,17.24
2023-05-24T12:02:03.903Z,17.25
2023-05-24T12:03:08.222Z,17.27
2023-05-24T12:04:10.395Z,17.28
2023-05-24T12:05:14.375Z,17.24
2023-05-24T12:06:16.100Z,17.26
2023-05-24T12:07:18.206Z,17.27
2023-05-24T12:08:20.831Z,17.30
2023-05-24T12:09:23.910Z,17.33
2023-05-24T12:10:25.674Z,17.33
2023-05-24T12:11:28.612Z,17.27
2023-05-24T12:12:38.766Z,17.23
2023-05-24T12:13:47.359Z,17.22
2023-05-24T12:14:49.113Z,17.22
2023-05-24T12:15:55.554Z,17.25
2023-05-24T12:16:58.840Z,17.20
2023-05-24T12:18:01.141Z,17.18
2023-05-24T12:19:07.429Z,17.22
2023-05-24T12:20:16.173Z,17.24
2023-05-24T12:21:18.869Z,17.23
2023-05-24T12:22:27.444Z,17.17
2023-05-24T12:23:32.209Z,17.15
2023-05-24T12:24:34.551Z,17.09
2023-05-24T12:25:37.770Z,17.12
2023-05-24T12:26:43.471Z,17.11
2023-05-24T12:27:48.379Z,17.15
2023-05-24T12:28:55.354Z,17.16
2023-05-24T12:29:57.238Z,17.19
2023-05-24T12:30:59.080Z,17.21
2023-05-24T12:32:01.452Z,17.20
2023-05-24T12:33:03.834Z,17.18
2023-05-24T12:34:07.580Z,17.14
2023-05-24T12:35:11.419Z,17.13
2023-05-24T12:36:13.547Z,17.07
2023-05-24T12:37:15.470Z,16.99
2023-05-24T12:38:25.453Z,16.97
2023-05-24T12:39:32.374Z,16.97
2023-05-24T12:40:34.122Z,17.02
2023-05-24T12:41:36.629Z,17.00
2023-05-24T12:42:38.426Z,16.99
2023-05-24T12:43:41.167Z,16.94
2023-05-24T12:44:43.140Z,16.86
2023-05-24T12:45:44.876Z,16.82
2023-05-24T12:46:46.695Z,16.79
2023-05-24T12:47:52.296Z,16.84
2023-05-24T12:48:54.148Z,16.82
2023-05-24T12:49:55.924Z,16.83
2023-05-24T12:50:57.733Z,16.85
2023-05-24T12:52:00.185Z,16.81
2023-05-24T12:53:02.014Z,16.78
2023-05-24T12:54:05.789Z,16.75
2023-05-24T12:55:08.130Z,16.75
2023-05-24T12:56:09.956Z,16.78
2023-05-24T12:57:11.735Z,16.81
2023-05-24T12:58:16.626Z,16.78
2023-05-24T12:59:18.623Z,16.75
2023-05-24T13:00:21.641Z,16.73
2023-05-24T13:01:24.560Z,16.71
2023-05-24T13:02:26.882Z,16.70
2023-05-24T13:03:28.647Z,16.70
2023-05-24T13:04:34.074Z,16.73
2023-05-24T13:05:35.993Z,16.78
2023-05-24T13:06:38.398Z,16.82
2023-05-24T13:07:40.333Z,16.85
2023-05-24T13:08:42.505Z,16.87
2023-05-24T13:09:44.296Z,16.90
2023-05-24T13:10:46.159Z,16.91
2023-05-24T13:11:47.897Z,16.89
2023-05-24T13:12:49.804Z,16.92
2023-05-24T13:13:52.056Z,16.91
2023-05-24T13:14:54.567Z,16.91
2023-05-24T13:15:56.404Z,16.84
2023-05-24T13:16:58.214Z,16.75
2023-05-24T13:17:59.974Z,16.73
2023-05-24T13:19:01.750Z,16.70
2023-05-24T13:20:06.450Z,16.71
2023-05-24T13:21:11.369Z,16.73
2023-05-24T13:22:14.622Z,16.73
2023-05-24T13:23:16.360Z,16.72
2023-05-24T13:24:18.185Z,16.72
2023-05-24T13:25:22.977Z,16.70
2023-05-24T13:26:24.922Z,16.71
2023-05-24T13:27:26.904Z,16.76
2023-05-24T13:28:30.278Z,16.74
2023-05-24T13:29:37.089Z,16.73
2023-05-24T13:30:44.625Z,16.73
2023-05-24T13:31:46.921Z,16.75
2023-05-24T13:32:48.983Z,16.81
2023-05-24T13:33:52.241Z,16.86
2023-05-24T13:34:54.013Z,16.89
2023-05-24T13:35:55.934Z,16.82